createdAt,value
2022-11-25T00:00:22.110Z,0.00
2022-11-25T00:01:22.078Z,0.00
2022-11-25T00:02:22.187Z,0.00
2022-11-25T00:03:22.150Z,0.00
2022-11-25T00:04:22.053Z,0.00
2022-11-25T00:05:22.077Z,0.00
2022-11-25T00:06:22.039Z,0.00
2022-11-25T00:07:22.027Z,0.00
2022-11-25T00:08:22.005Z,0.00
2022-11-25T00:09:21.994Z,0.00
2022-11-25T00:10:22.028Z,0.00
2022-11-25T00:11:22.009Z,0.00
2022-11-25T00:12:21.981Z,0.00
2022-11-25T00:13:21.961Z,0.00
2022-11-25T00:14:21.954Z,0.00
2022-11-25T00:15:21.931Z,0.00
2022-11-25T00:16:21.969Z,0.00
2022-11-25T00:17:21.938Z,0.00
2022-11-25T00:18:21.908Z,0.00
2022-11-25T00:19:21.894Z,0.00
2022-11-25T00:20:21.885Z,0.00
2022-11-25T00:21:21.882Z,0.00
2022-11-25T00:22:21.867Z,0.00
2022-11-25T00:23:21.871Z,0.00
2022-11-25T00:24:21.858Z,0.00
2022-11-25T00:25:21.827Z,0.00
2022-11-25T00:26:21.828Z,0.00
2022-11-25T00:27:21.835Z,0.00
2022-11-25T00:28:21.807Z,0.00
2022-11-25T00:29:21.801Z,0.00
2022-11-25T00:30:21.781Z,0.00
2022-11-25T00:31:21.861Z,0.00
2022-11-25T00:32:21.751Z,0.00
2022-11-25T00:33:21.774Z,0.00
2022-11-25T00:34:21.761Z,0.00
2022-11-25T00:35:21.717Z,0.00
2022-11-25T00:36:21.724Z,0.00
2022-11-25T00:37:21.723Z,0.00
2022-11-25T00:38:21.698Z,0.00
2022-11-25T00:39:21.708Z,0.00
2022-11-25T00:40:21.688Z,0.00
2022-11-25T00:41:21.667Z,0.00
2022-11-25T00:42:21.666Z,0.00
2022-11-25T00:43:21.656Z,0.00
2022-11-25T00:44:21.655Z,0.00
2022-11-25T00:45:21.838Z,0.00
2022-11-25T00:46:21.632Z,0.00
2022-11-25T00:47:21.606Z,0.00
2022-11-25T00:48:21.620Z,0.00
2022-11-25T00:49:21.580Z,0.00
2022-11-25T00:50:21.581Z,0.00
2022-11-25T00:51:21.579Z,0.00
2022-11-25T00:52:21.569Z,0.00
2022-11-25T00:53:21.546Z,0.00
2022-11-25T00:54:21.561Z,0.00
2022-11-25T00:55:21.534Z,0.00
2022-11-25T00:56:21.501Z,0.00
2022-11-25T00:57:21.504Z,0.00
2022-11-25T00:58:21.507Z,0.00
2022-11-25T00:59:21.502Z,0.00
2022-11-25T01:00:21.473Z,0.00
2022-11-25T01:01:21.549Z,0.00
2022-11-25T01:02:21.504Z,0.00
2022-11-25T01:03:21.435Z,0.00
2022-11-25T01:04:21.445Z,0.00
2022-11-25T01:05:21.441Z,0.00
2022-11-25T01:06:21.398Z,0.00
2022-11-25T01:07:21.510Z,0.00
2022-11-25T01:08:21.380Z,0.00
2022-11-25T01:09:21.373Z,0.00
2022-11-25T01:10:21.367Z,0.00
2022-11-25T01:11:21.348Z,0.00
2022-11-25T01:12:21.340Z,0.00
2022-11-25T01:13:21.335Z,0.00
2022-11-25T01:14:21.354Z,0.00
2022-11-25T01:15:21.315Z,0.00
2022-11-25T01:16:21.342Z,0.00
2022-11-25T01:17:21.314Z,0.00
2022-11-25T01:18:21.265Z,0.00
2022-11-25T01:19:21.283Z,0.00
2022-11-25T01:20:21.268Z,0.00
2022-11-25T01:21:21.252Z,0.00
2022-11-25T01:22:21.240Z,0.00
2022-11-25T01:23:21.260Z,0.00
2022-11-25T01:24:22.704Z,0.00
2022-11-25T01:25:21.198Z,0.00
2022-11-25T01:26:21.189Z,0.00
2022-11-25T01:27:21.202Z,0.00
2022-11-25T01:28:21.175Z,0.00
2022-11-25T01:29:21.178Z,0.00
2022-11-25T01:30:21.161Z,0.00
2022-11-25T01:31:21.172Z,0.00
2022-11-25T01:32:21.164Z,0.00
2022-11-25T01:33:21.130Z,0.00
2022-11-25T01:34:21.138Z,0.00
2022-11-25T01:35:21.102Z,0.00
2022-11-25T01:36:21.084Z,0.00
2022-11-25T01:37:21.080Z,0.00
2022-11-25T01:38:21.096Z,0.00
2022-11-25T01:39:21.056Z,0.00
2022-11-25T01:40:21.060Z,0.00
2022-11-25T01:41:21.055Z,0.00
2022-11-25T01:42:21.038Z,0.00
2022-11-25T01:43:21.016Z,0.00
2022-11-25T01:44:21.014Z,0.00
2022-11-25T01:45:21.006Z,0.00
2022-11-25T01:46:21.080Z,0.00
2022-11-25T01:47:20.976Z,0.00
2022-11-25T01:48:20.965Z,0.00
2022-11-25T01:49:20.997Z,0.00
2022-11-25T01:50:20.947Z,0.00
2022-11-25T01:51:20.944Z,0.00
2022-11-25T01:52:20.923Z,0.00
2022-11-25T01:53:20.907Z,0.00
2022-11-25T01:54:20.936Z,0.00
2022-11-25T01:55:20.887Z,0.00
2022-11-25T01:56:20.876Z,0.00
2022-11-25T01:57:20.873Z,0.00
2022-11-25T01:58:20.903Z,0.00
2022-11-25T01:59:20.854Z,0.00
2022-11-25T02:00:20.827Z,0.00
2022-11-25T02:01:20.870Z,0.00
2022-11-25T02:02:20.919Z,0.00
2022-11-25T02:03:20.810Z,0.00
2022-11-25T02:04:20.824Z,0.00
2022-11-25T02:05:20.781Z,0.00
2022-11-25T02:06:20.789Z,0.00
2022-11-25T02:07:20.859Z,0.00
2022-11-25T02:08:20.748Z,0.00
2022-11-25T02:09:20.757Z,0.00
2022-11-25T02:10:20.724Z,0.00
2022-11-25T02:11:20.731Z,0.00
2022-11-25T02:12:20.768Z,0.00
2022-11-25T02:13:20.726Z,0.00
2022-11-25T02:14:20.684Z,0.00
2022-11-25T02:15:20.681Z,0.00
2022-11-25T02:16:20.808Z,0.00
2022-11-25T02:17:20.663Z,0.00
2022-11-25T02:18:20.669Z,0.00
2022-11-25T02:19:20.672Z,0.00
2022-11-25T02:20:20.632Z,0.00
2022-11-25T02:21:20.635Z,0.00
2022-11-25T02:22:20.624Z,0.00
2022-11-25T02:23:20.600Z,0.00
2022-11-25T02:24:20.602Z,0.00
2022-11-25T02:25:20.580Z,0.00
2022-11-25T02:26:20.566Z,0.00
2022-11-25T02:27:20.572Z,0.00
2022-11-25T02:28:20.564Z,0.00
2022-11-25T02:29:20.538Z,0.00
2022-11-25T02:30:20.528Z,0.00
2022-11-25T02:31:20.601Z,0.00
2022-11-25T02:32:20.498Z,0.00
2022-11-25T02:33:20.534Z,0.00
2022-11-25T02:34:20.493Z,0.00
2022-11-25T02:35:20.478Z,0.00
2022-11-25T02:36:20.462Z,0.00
2022-11-25T02:37:20.447Z,0.00
2022-11-25T02:38:20.446Z,0.00
2022-11-25T02:39:20.456Z,0.00
2022-11-25T02:40:20.445Z,0.00
2022-11-25T02:41:20.404Z,0.00
2022-11-25T02:42:20.423Z,0.00
2022-11-25T02:43:20.387Z,0.00
2022-11-25T02:44:20.390Z,0.00
2022-11-25T02:45:20.366Z,0.00
2022-11-25T02:46:22.560Z,0.00
2022-11-25T02:47:20.357Z,0.00
2022-11-25T02:48:26.564Z,0.00
2022-11-25T02:49:21.348Z,0.00
2022-11-25T02:50:20.330Z,0.00
2022-11-25T02:51:20.307Z,0.00
2022-11-25T02:52:20.809Z,0.00
2022-11-25T02:53:20.298Z,0.00
2022-11-25T02:54:20.270Z,0.00
2022-11-25T02:55:20.249Z,0.00
2022-11-25T02:56:20.248Z,0.00
2022-11-25T02:57:20.239Z,0.00
2022-11-25T02:58:20.240Z,0.00
2022-11-25T02:59:20.227Z,0.00
2022-11-25T03:00:20.228Z,0.00
2022-11-25T03:01:20.236Z,0.00
2022-11-25T03:02:20.265Z,0.00
2022-11-25T03:03:20.195Z,0.00
2022-11-25T03:04:20.161Z,0.00
2022-11-25T03:05:20.169Z,0.00
2022-11-25T03:06:20.155Z,0.00
2022-11-25T03:07:20.209Z,0.00
2022-11-25T03:08:20.156Z,0.00
2022-11-25T03:09:20.111Z,0.00
2022-11-25T03:10:20.134Z,0.00
2022-11-25T03:11:20.100Z,0.00
2022-11-25T03:12:20.078Z,0.00
2022-11-25T03:13:20.083Z,0.00
2022-11-25T03:14:20.068Z,0.00
2022-11-25T03:15:20.077Z,0.00
2022-11-25T03:16:20.229Z,0.00
2022-11-25T03:17:20.028Z,0.00
2022-11-25T03:18:20.035Z,0.00
2022-11-25T03:19:20.024Z,0.00
2022-11-25T03:20:20.025Z,0.00
2022-11-25T03:21:19.992Z,0.00
2022-11-25T03:22:19.990Z,0.00
2022-11-25T03:23:19.994Z,0.00
2022-11-25T03:24:19.958Z,0.00
2022-11-25T03:25:19.961Z,0.00
2022-11-25T03:26:19.945Z,0.00
2022-11-25T03:27:19.920Z,0.00
2022-11-25T03:28:19.940Z,0.00
2022-11-25T03:29:19.918Z,0.00
2022-11-25T03:30:19.901Z,0.00
2022-11-25T03:31:19.946Z,0.00
2022-11-25T03:32:19.867Z,0.00
2022-11-25T03:33:19.874Z,0.00
2022-11-25T03:34:19.874Z,0.00
2022-11-25T03:35:19.881Z,0.00
2022-11-25T03:36:19.867Z,0.00
2022-11-25T03:37:19.887Z,0.00
2022-11-25T03:38:19.893Z,0.00
2022-11-25T03:39:19.843Z,0.00
2022-11-25T03:40:19.806Z,0.00
2022-11-25T03:41:19.799Z,0.00
2022-11-25T03:42:19.766Z,0.00
2022-11-25T03:43:19.759Z,0.00
2022-11-25T03:44:19.766Z,0.00
2022-11-25T03:45:19.773Z,0.00
2022-11-25T03:46:19.777Z,0.00
2022-11-25T03:47:19.733Z,0.00
2022-11-25T03:48:19.736Z,0.00
2022-11-25T03:49:19.794Z,0.00
2022-11-25T03:50:19.726Z,0.00
2022-11-25T03:51:19.684Z,0.00
2022-11-25T03:52:19.675Z,0.00
2022-11-25T03:53:19.676Z,0.00
2022-11-25T03:54:19.673Z,0.00
2022-11-25T03:55:19.675Z,0.00
2022-11-25T03:56:19.649Z,0.00
2022-11-25T03:57:19.621Z,0.00
2022-11-25T03:58:19.618Z,0.00
2022-11-25T03:59:19.597Z,0.00
2022-11-25T04:00:19.590Z,0.00
2022-11-25T04:01:19.743Z,0.00
2022-11-25T04:02:19.642Z,0.00
2022-11-25T04:03:19.565Z,0.00
2022-11-25T04:04:19.558Z,0.00
2022-11-25T04:05:19.546Z,0.00
2022-11-25T04:06:19.554Z,0.00
2022-11-25T04:07:19.623Z,0.00
2022-11-25T04:08:19.517Z,0.00
2022-11-25T04:09:19.492Z,0.00
2022-11-25T04:10:19.538Z,0.00
2022-11-25T04:11:19.479Z,0.00
2022-11-25T04:12:19.476Z,0.00
2022-11-25T04:13:19.447Z,0.00
2022-11-25T04:14:19.444Z,0.00
2022-11-25T04:15:19.446Z,0.00
2022-11-25T04:16:19.459Z,0.00
2022-11-25T04:17:19.430Z,0.00
2022-11-25T04:18:19.397Z,0.00
2022-11-25T04:19:19.385Z,0.00
2022-11-25T04:20:19.389Z,0.00
2022-11-25T04:21:19.376Z,0.00
2022-11-25T04:22:19.364Z,0.00
2022-11-25T04:23:19.359Z,0.00
2022-11-25T04:24:19.363Z,0.00
2022-11-25T04:25:19.337Z,0.00
2022-11-25T04:26:19.384Z,0.00
2022-11-25T04:27:20.520Z,0.00
2022-11-25T04:28:19.354Z,0.00
2022-11-25T04:29:19.292Z,0.00
2022-11-25T04:30:19.285Z,0.00
2022-11-25T04:31:19.354Z,0.00
2022-11-25T04:32:19.271Z,0.00
2022-11-25T04:33:19.263Z,0.00
2022-11-25T04:34:19.252Z,0.00
2022-11-25T04:35:19.232Z,0.00
2022-11-25T04:36:19.255Z,0.00
2022-11-25T04:37:19.194Z,0.00
2022-11-25T04:38:19.196Z,0.00
2022-11-25T04:39:19.203Z,0.00
2022-11-25T04:40:19.170Z,0.00
2022-11-25T04:41:19.172Z,0.00
2022-11-25T04:42:19.173Z,0.00
2022-11-25T04:43:19.188Z,0.00
2022-11-25T04:44:19.158Z,0.00
2022-11-25T04:45:23.677Z,0.00
2022-11-25T04:46:19.251Z,0.00
2022-11-25T04:47:19.101Z,0.00
2022-11-25T04:48:19.085Z,0.00
2022-11-25T04:49:19.086Z,0.00
2022-11-25T04:50:19.101Z,0.00
2022-11-25T04:51:19.050Z,0.00
2022-11-25T04:52:19.045Z,0.00
2022-11-25T04:53:19.047Z,0.00
2022-11-25T04:54:19.040Z,0.00
2022-11-25T04:55:19.013Z,0.00
2022-11-25T04:56:19.014Z,0.00
2022-11-25T04:57:18.995Z,0.00
2022-11-25T04:58:18.999Z,0.00
2022-11-25T04:59:18.970Z,0.00
2022-11-25T05:00:18.995Z,0.00
2022-11-25T05:01:19.013Z,0.00
2022-11-25T05:02:19.010Z,0.00
2022-11-25T05:03:18.936Z,0.00
2022-11-25T05:04:18.914Z,0.00
2022-11-25T05:05:18.915Z,0.00
2022-11-25T05:06:18.912Z,0.00
2022-11-25T05:07:18.912Z,0.00
2022-11-25T05:08:18.899Z,0.00
2022-11-25T05:09:18.911Z,0.00
2022-11-25T05:10:18.860Z,0.00
2022-11-25T05:11:18.866Z,0.00
2022-11-25T05:12:18.844Z,0.00
2022-11-25T05:13:18.828Z,0.00
2022-11-25T05:14:18.832Z,0.00
2022-11-25T05:15:18.818Z,0.00
2022-11-25T05:16:18.885Z,0.00
2022-11-25T05:17:18.784Z,0.00
2022-11-25T05:18:18.800Z,0.00
2022-11-25T05:19:18.768Z,0.00
2022-11-25T05:20:18.759Z,0.00
2022-11-25T05:21:18.741Z,0.00
2022-11-25T05:22:18.778Z,0.00
2022-11-25T05:23:18.724Z,0.00
2022-11-25T05:24:18.719Z,0.00
2022-11-25T05:25:18.696Z,0.00
2022-11-25T05:26:18.739Z,0.00
2022-11-25T05:27:18.700Z,0.00
2022-11-25T05:28:18.666Z,0.00
2022-11-25T05:29:18.676Z,0.00
2022-11-25T05:30:18.687Z,0.00
2022-11-25T05:31:18.741Z,0.00
2022-11-25T05:32:18.636Z,0.00
2022-11-25T05:33:18.681Z,0.00
2022-11-25T05:34:18.600Z,0.00
2022-11-25T05:35:18.594Z,0.00
2022-11-25T05:36:18.582Z,0.00
2022-11-25T05:37:22.896Z,0.00
2022-11-25T05:38:19.578Z,0.00
2022-11-25T05:39:18.552Z,0.00
2022-11-25T05:40:18.554Z,0.00
2022-11-25T05:41:18.537Z,0.00
2022-11-25T05:42:18.533Z,0.00
2022-11-25T05:43:18.512Z,0.00
2022-11-25T05:44:22.811Z,0.00
2022-11-25T05:45:18.493Z,0.00
2022-11-25T05:46:18.585Z,0.00
2022-11-25T05:47:18.472Z,0.00
2022-11-25T05:48:18.481Z,0.00
2022-11-25T05:49:18.450Z,0.00
2022-11-25T05:50:18.433Z,0.00
2022-11-25T05:51:18.423Z,0.00
2022-11-25T05:52:18.422Z,0.00
2022-11-25T05:53:18.438Z,0.00
2022-11-25T05:54:18.430Z,0.00
2022-11-25T05:55:18.386Z,0.00
2022-11-25T05:56:18.392Z,0.00
2022-11-25T05:57:18.371Z,0.00
2022-11-25T05:58:18.399Z,0.00
2022-11-25T05:59:18.348Z,0.00
2022-11-25T06:00:22.118Z,0.00
2022-11-25T06:01:19.327Z,0.00
2022-11-25T06:02:18.419Z,0.00
2022-11-25T06:03:18.445Z,0.00
2022-11-25T06:04:18.301Z,0.00
2022-11-25T06:05:18.331Z,0.00
2022-11-25T06:06:18.304Z,0.00
2022-11-25T06:07:18.281Z,0.00
2022-11-25T06:08:18.258Z,0.00
2022-11-25T06:09:18.258Z,0.00
2022-11-25T06:10:18.234Z,0.00
2022-11-25T06:11:18.243Z,4.00
2022-11-25T06:12:18.218Z,4.00
2022-11-25T06:13:18.205Z,0.00
2022-11-25T06:14:18.205Z,4.00
2022-11-25T06:15:18.204Z,4.00
2022-11-25T06:16:18.238Z,4.00
2022-11-25T06:17:18.165Z,4.00
2022-11-25T06:18:18.173Z,4.00
2022-11-25T06:19:18.146Z,8.00
2022-11-25T06:20:18.133Z,8.00
2022-11-25T06:21:18.126Z,8.00
2022-11-25T06:22:18.140Z,8.00
2022-11-25T06:23:18.113Z,12.00
2022-11-25T06:24:18.091Z,16.00
2022-11-25T06:25:18.078Z,16.00
2022-11-25T06:26:18.083Z,20.00
2022-11-25T06:27:18.099Z,24.00
2022-11-25T06:28:18.063Z,24.00
2022-11-25T06:29:18.045Z,32.00
2022-11-25T06:30:18.040Z,36.00
2022-11-25T06:31:18.083Z,44.00
2022-11-25T06:32:18.021Z,48.00
2022-11-25T06:33:18.007Z,56.00
2022-11-25T06:34:17.994Z,64.00
2022-11-25T06:35:17.983Z,72.00
2022-11-25T06:36:18.032Z,80.00
2022-11-25T06:37:17.964Z,92.00
2022-11-25T06:38:17.957Z,104.00
2022-11-25T06:39:17.938Z,116.00
2022-11-25T06:40:17.944Z,128.00
2022-11-25T06:41:17.920Z,144.00
2022-11-25T06:42:17.973Z,156.00
2022-11-25T06:43:17.938Z,172.00
2022-11-25T06:44:17.905Z,192.00
2022-11-25T06:45:17.881Z,208.00
2022-11-25T06:46:23.016Z,224.00
2022-11-25T06:47:18.860Z,240.00
2022-11-25T06:48:17.838Z,264.00
2022-11-25T06:49:17.854Z,284.00
2022-11-25T06:50:18.701Z,304.00
2022-11-25T06:51:17.816Z,324.00
2022-11-25T06:52:17.787Z,348.00
2022-11-25T06:53:23.809Z,372.00
2022-11-25T06:54:18.795Z,396.00
2022-11-25T06:55:17.784Z,424.00
2022-11-25T06:56:17.752Z,444.00
2022-11-25T06:57:17.747Z,472.00
2022-11-25T06:58:34.764Z,500.00
2022-11-25T06:59:18.722Z,524.00
2022-11-25T07:00:17.723Z,556.00
2022-11-25T07:01:17.786Z,584.00
2022-11-25T07:02:17.738Z,612.00
2022-11-25T07:03:17.755Z,644.00
2022-11-25T07:04:17.671Z,672.00
2022-11-25T07:05:17.675Z,708.00
2022-11-25T07:06:17.687Z,736.00
2022-11-25T07:07:17.679Z,764.00
2022-11-25T07:08:17.634Z,792.00
2022-11-25T07:09:17.618Z,816.00
2022-11-25T07:10:17.603Z,840.00
2022-11-25T07:11:17.649Z,864.00
2022-11-25T07:12:17.602Z,884.00
2022-11-25T07:13:17.580Z,912.00
2022-11-25T07:14:17.578Z,948.00
2022-11-25T07:15:17.579Z,964.00
2022-11-25T07:16:17.637Z,1008.00
2022-11-25T07:17:17.549Z,1016.00
2022-11-25T07:18:17.529Z,1032.00
2022-11-25T07:19:17.524Z,1068.00
2022-11-25T07:20:17.509Z,1080.00
2022-11-25T07:21:17.513Z,1116.00
2022-11-25T07:22:17.506Z,1132.00
2022-11-25T07:23:17.497Z,1172.00
2022-11-25T07:24:17.472Z,1204.00
2022-11-25T07:25:17.454Z,1220.00
2022-11-25T07:26:17.449Z,1280.00
2022-11-25T07:27:17.452Z,1320.00
2022-11-25T07:28:17.417Z,1336.00
2022-11-25T07:29:44.270Z,1372.00
2022-11-25T07:31:21.261Z,1396.00
2022-11-25T07:31:24.329Z,1428.00
2022-11-25T07:32:18.401Z,1476.00
2022-11-25T07:33:17.415Z,1480.00
2022-11-25T07:34:17.363Z,1504.00
2022-11-25T07:35:17.356Z,1528.00
2022-11-25T07:36:17.344Z,1556.00
2022-11-25T07:37:17.348Z,1580.00
2022-11-25T07:38:17.352Z,1652.00
2022-11-25T07:39:17.344Z,1640.00
2022-11-25T07:40:17.294Z,1664.00
2022-11-25T07:41:17.303Z,1724.00
2022-11-25T07:42:17.277Z,1708.00
2022-11-25T07:43:17.273Z,1756.00
2022-11-25T07:44:17.274Z,1748.00
2022-11-25T07:45:17.269Z,1788.00
2022-11-25T07:46:18.913Z,1856.00
2022-11-25T07:47:17.231Z,1880.00
2022-11-25T07:48:17.222Z,1912.00
2022-11-25T07:49:17.212Z,1920.00
2022-11-25T07:50:17.224Z,1952.00
2022-11-25T07:51:17.182Z,2008.00
2022-11-25T07:52:17.189Z,2004.00
2022-11-25T07:53:17.169Z,2016.00
2022-11-25T07:54:17.167Z,2072.00
2022-11-25T07:55:17.161Z,2084.00
2022-11-25T07:56:17.145Z,2120.00
2022-11-25T07:57:17.130Z,2104.00
2022-11-25T07:58:17.126Z,2132.00
2022-11-25T07:59:17.107Z,2180.00
2022-11-25T08:00:17.106Z,2168.00
2022-11-25T08:01:17.177Z,2160.00
2022-11-25T08:02:17.135Z,2244.00
2022-11-25T08:03:17.162Z,2232.00
2022-11-25T08:04:20.555Z,2292.00
2022-11-25T08:05:17.039Z,2312.00
2022-11-25T08:06:17.041Z,2276.00
2022-11-25T08:07:17.049Z,2316.00
2022-11-25T08:08:17.004Z,2440.00
2022-11-25T08:09:17.005Z,2332.00
2022-11-25T08:10:17.018Z,2376.00
2022-11-25T08:11:16.978Z,2360.00
2022-11-25T08:12:16.980Z,2400.00
2022-11-25T08:13:16.966Z,2380.00
2022-11-25T08:14:16.970Z,2376.00
2022-11-25T08:15:16.940Z,2496.00
2022-11-25T08:16:17.083Z,2552.00
2022-11-25T08:17:16.940Z,2476.00
2022-11-25T08:18:16.903Z,2476.00
2022-11-25T08:19:16.887Z,2620.00
2022-11-25T08:20:16.906Z,2572.00
2022-11-25T08:21:16.908Z,2612.00
2022-11-25T08:22:16.865Z,2584.00
2022-11-25T08:23:16.873Z,2656.00
2022-11-25T08:24:16.835Z,2608.00
2022-11-25T08:25:16.827Z,2640.00
2022-11-25T08:26:16.852Z,2648.00
2022-11-25T08:27:16.822Z,2688.00
2022-11-25T08:28:16.800Z,2732.00
2022-11-25T08:29:16.789Z,2696.00
2022-11-25T08:30:16.819Z,2716.00
2022-11-25T08:31:16.774Z,2688.00
2022-11-25T08:32:16.769Z,2764.00
2022-11-25T08:33:16.806Z,2752.00
2022-11-25T08:34:16.748Z,2680.00
2022-11-25T08:35:16.731Z,2784.00
2022-11-25T08:36:16.721Z,2756.00
2022-11-25T08:37:16.702Z,2628.00
2022-11-25T08:38:16.708Z,2616.00
2022-11-25T08:39:44.032Z,2632.00
2022-11-25T08:40:17.680Z,2568.00
2022-11-25T08:41:16.659Z,2620.00
2022-11-25T08:42:16.677Z,2624.00
2022-11-25T08:43:16.653Z,2632.00
2022-11-25T08:44:16.628Z,2676.00
2022-11-25T08:45:16.624Z,2712.00
2022-11-25T08:46:16.706Z,2644.00
2022-11-25T08:47:16.606Z,2676.00
2022-11-25T08:48:16.607Z,2728.00
2022-11-25T08:49:16.632Z,2740.00
2022-11-25T08:50:16.602Z,2740.00
2022-11-25T08:51:16.568Z,2760.00
2022-11-25T08:52:16.556Z,2748.00
2022-11-25T08:53:16.540Z,2836.00
2022-11-25T08:54:16.538Z,2772.00
2022-11-25T08:55:16.560Z,2776.00
2022-11-25T08:56:19.303Z,2752.00
2022-11-25T08:57:16.508Z,2720.00
2022-11-25T08:58:16.518Z,2712.00
2022-11-25T08:59:16.483Z,2684.00
2022-11-25T09:00:16.479Z,2692.00
2022-11-25T09:01:16.494Z,2720.00
2022-11-25T09:02:16.532Z,2756.00
2022-11-25T09:03:16.511Z,2776.00
2022-11-25T09:04:16.432Z,2812.00
2022-11-25T09:05:16.415Z,2852.00
2022-11-25T09:06:16.422Z,2908.00
2022-11-25T09:07:16.419Z,2928.00
2022-11-25T09:08:16.501Z,2940.00
2022-11-25T09:09:16.382Z,2944.00
2022-11-25T09:10:16.374Z,2936.00
2022-11-25T09:11:16.483Z,2936.00
2022-11-25T09:12:16.351Z,2928.00
2022-11-25T09:13:16.335Z,2924.00
2022-11-25T09:14:16.413Z,2920.00
2022-11-25T09:15:16.306Z,2932.00
2022-11-25T09:16:16.361Z,2940.00
2022-11-25T09:17:16.296Z,2936.00
2022-11-25T09:18:16.287Z,2956.00
2022-11-25T09:19:16.275Z,2968.00
2022-11-25T09:20:16.263Z,2940.00
2022-11-25T09:21:16.244Z,2948.00
2022-11-25T09:22:16.244Z,2932.00
2022-11-25T09:23:16.228Z,3024.00
2022-11-25T09:24:16.235Z,3092.00
2022-11-25T09:25:16.211Z,3148.00
2022-11-25T09:26:16.192Z,3176.00
2022-11-25T09:27:16.189Z,3224.00
2022-11-25T09:28:16.176Z,3248.00
2022-11-25T09:29:16.169Z,3272.00
2022-11-25T09:30:16.195Z,3288.00
2022-11-25T09:31:16.173Z,3292.00
2022-11-25T09:32:16.163Z,3304.00
2022-11-25T09:33:16.125Z,3316.00
2022-11-25T09:34:16.111Z,3332.00
2022-11-25T09:35:16.118Z,3336.00
2022-11-25T09:36:16.105Z,3336.00
2022-11-25T09:37:16.087Z,3316.00
2022-11-25T09:38:16.082Z,3304.00
2022-11-25T09:39:16.060Z,3312.00
2022-11-25T09:40:16.052Z,3336.00
2022-11-25T09:41:16.075Z,3348.00
2022-11-25T09:42:16.027Z,3368.00
2022-11-25T09:43:16.032Z,3392.00
2022-11-25T09:44:16.006Z,3424.00
2022-11-25T09:45:15.999Z,3456.00
2022-11-25T09:46:16.050Z,3468.00
2022-11-25T09:47:15.990Z,3488.00
2022-11-25T09:48:15.967Z,3456.00
2022-11-25T09:49:15.971Z,3440.00
2022-11-25T09:50:15.935Z,3456.00
2022-11-25T09:51:15.943Z,3464.00
2022-11-25T09:52:15.948Z,3468.00
2022-11-25T09:53:15.929Z,3476.00
2022-11-25T09:54:15.903Z,3476.00
2022-11-25T09:55:15.907Z,3468.00
2022-11-25T09:56:15.883Z,3456.00
2022-11-25T09:57:15.879Z,3456.00
2022-11-25T09:58:15.867Z,3452.00
2022-11-25T09:59:15.864Z,3448.00
2022-11-25T10:00:15.841Z,3412.00
2022-11-25T10:01:15.862Z,3416.00
2022-11-25T10:02:15.974Z,3436.00
2022-11-25T10:03:15.852Z,3440.00
2022-11-25T10:04:15.811Z,3436.00
2022-11-25T10:05:15.807Z,3436.00
2022-11-25T10:06:15.834Z,3436.00
2022-11-25T10:07:15.786Z,3428.00
2022-11-25T10:08:15.757Z,3420.00
2022-11-25T10:09:15.746Z,3412.00
2022-11-25T10:10:15.739Z,3400.00
2022-11-25T10:11:15.738Z,3384.00
2022-11-25T10:12:15.718Z,3372.00
2022-11-25T10:13:15.714Z,3352.00
2022-11-25T10:14:15.709Z,3336.00
2022-11-25T10:15:15.698Z,3328.00
2022-11-25T10:16:15.720Z,3320.00
2022-11-25T10:17:15.682Z,3308.00
2022-11-25T10:18:15.681Z,3296.00
2022-11-25T10:19:15.664Z,3284.00
2022-11-25T10:20:15.644Z,3260.00
2022-11-25T10:21:15.616Z,3244.00
2022-11-25T10:22:15.607Z,3220.00
2022-11-25T10:23:15.593Z,3204.00
2022-11-25T10:24:15.589Z,3200.00
2022-11-25T10:25:15.589Z,3196.00
2022-11-25T10:26:15.578Z,3192.00
2022-11-25T10:27:15.584Z,3172.00
2022-11-25T10:28:15.553Z,3168.00
2022-11-25T10:29:15.538Z,3160.00
2022-11-25T10:30:15.540Z,3172.00
2022-11-25T10:31:15.580Z,3160.00
2022-11-25T10:32:15.497Z,3160.00
2022-11-25T10:33:15.521Z,3160.00
2022-11-25T10:34:15.499Z,3148.00
2022-11-25T10:35:15.490Z,3128.00
2022-11-25T10:36:15.466Z,3128.00
2022-11-25T10:37:15.454Z,3140.00
2022-11-25T10:38:19.013Z,3144.00
2022-11-25T10:39:15.465Z,3156.00
2022-11-25T10:40:15.441Z,3148.00
2022-11-25T10:41:15.428Z,3148.00
2022-11-25T10:42:15.403Z,3144.00
2022-11-25T10:43:15.385Z,3152.00
2022-11-25T10:44:15.384Z,3164.00
2022-11-25T10:45:15.374Z,3180.00
2022-11-25T10:46:15.469Z,3196.00
2022-11-25T10:47:15.629Z,3208.00
2022-11-25T10:48:15.340Z,3216.00
2022-11-25T10:49:15.333Z,3212.00
2022-11-25T10:50:15.352Z,3208.00
2022-11-25T10:51:15.320Z,3200.00
2022-11-25T10:52:15.301Z,3200.00
2022-11-25T10:53:15.309Z,3200.00
2022-11-25T10:54:15.285Z,3204.00
2022-11-25T10:55:15.315Z,3208.00
2022-11-25T10:56:15.265Z,3200.00
2022-11-25T10:57:15.241Z,3180.00
2022-11-25T10:58:15.267Z,3176.00
2022-11-25T10:59:15.230Z,3180.00
2022-11-25T11:00:17.477Z,3180.00
2022-11-25T11:01:15.754Z,3184.00
2022-11-25T11:02:15.459Z,3188.00
2022-11-25T11:03:15.290Z,3200.00
2022-11-25T11:04:15.183Z,3212.00
2022-11-25T11:05:15.163Z,3232.00
2022-11-25T11:06:15.169Z,3252.00
2022-11-25T11:07:15.167Z,3264.00
2022-11-25T11:08:15.312Z,3284.00
2022-11-25T11:09:15.358Z,3296.00
2022-11-25T11:10:15.120Z,3324.00
2022-11-25T11:11:15.100Z,3336.00
2022-11-25T11:12:15.100Z,3364.00
2022-11-25T11:13:15.078Z,3396.00
2022-11-25T11:14:15.072Z,3420.00
2022-11-25T11:15:15.073Z,3436.00
2022-11-25T11:16:15.126Z,3468.00
2022-11-25T11:17:15.086Z,3516.00
2022-11-25T11:18:15.029Z,3564.00
2022-11-25T11:19:15.017Z,3568.00
2022-11-25T11:20:15.169Z,3616.00
2022-11-25T11:21:15.004Z,3640.00
2022-11-25T11:22:15.199Z,3656.00
2022-11-25T11:23:14.995Z,3744.00
2022-11-25T11:24:14.985Z,3740.00
2022-11-25T11:25:14.971Z,3712.00
2022-11-25T11:26:14.952Z,3692.00
2022-11-25T11:27:14.959Z,3656.00
2022-11-25T11:28:14.961Z,3660.00
2022-11-25T11:29:14.933Z,3632.00
2022-11-25T11:30:15.074Z,3620.00
2022-11-25T11:31:15.051Z,3596.00
2022-11-25T11:32:14.882Z,3556.00
2022-11-25T11:33:14.944Z,3472.00
2022-11-25T11:34:14.895Z,3440.00
2022-11-25T11:35:14.860Z,3392.00
2022-11-25T11:36:14.881Z,3348.00
2022-11-25T11:37:14.854Z,3288.00
2022-11-25T11:38:14.844Z,3240.00
2022-11-25T11:39:14.807Z,3200.00
2022-11-25T11:40:14.920Z,3200.00
2022-11-25T11:41:14.784Z,3212.00
2022-11-25T11:42:14.831Z,3256.00
2022-11-25T11:43:14.771Z,3336.00
2022-11-25T11:44:14.776Z,3356.00
2022-11-25T11:45:14.733Z,3328.00
2022-11-25T11:46:14.819Z,3268.00
2022-11-25T11:47:14.734Z,3220.00
2022-11-25T11:48:14.714Z,3208.00
2022-11-25T11:49:14.703Z,3176.00
2022-11-25T11:50:14.699Z,3168.00
2022-11-25T11:51:14.711Z,3180.00
2022-11-25T11:52:14.698Z,3220.00
2022-11-25T11:53:14.666Z,3268.00
2022-11-25T11:54:14.656Z,3320.00
2022-11-25T11:55:14.630Z,3392.00
2022-11-25T11:57:15.635Z,3528.00
2022-11-25T11:58:14.613Z,3604.00
2022-11-25T11:59:14.605Z,3632.00
2022-11-25T12:00:14.581Z,3672.00
2022-11-25T12:01:14.570Z,3744.00
2022-11-25T12:02:14.618Z,3780.00
2022-11-25T12:03:14.690Z,3780.00
2022-11-25T12:04:14.540Z,3752.00
2022-11-25T12:05:14.548Z,3728.00
2022-11-25T12:06:14.538Z,3736.00
2022-11-25T12:07:14.621Z,3772.00
2022-11-25T12:08:14.505Z,3832.00
2022-11-25T12:09:14.484Z,3860.00
2022-11-25T12:10:14.504Z,3860.00
2022-11-25T12:11:14.474Z,3880.00
2022-11-25T12:12:14.468Z,3884.00
2022-11-25T12:13:14.465Z,3844.00
2022-11-25T12:14:14.437Z,3804.00
2022-11-25T12:15:14.448Z,3792.00
2022-11-25T12:16:14.456Z,3788.00
2022-11-25T12:17:14.402Z,3792.00
2022-11-25T12:18:14.402Z,3796.00
2022-11-25T12:19:14.420Z,3792.00
2022-11-25T12:20:14.385Z,3804.00
2022-11-25T12:21:14.374Z,3808.00
2022-11-25T12:22:14.373Z,3812.00
2022-11-25T12:23:14.391Z,3816.00
2022-11-25T12:24:14.335Z,3832.00
2022-11-25T12:25:14.410Z,3848.00
2022-11-25T12:26:14.331Z,3856.00
2022-11-25T12:27:14.311Z,3868.00
2022-11-25T12:28:14.291Z,3900.00
2022-11-25T12:29:14.294Z,3932.00
2022-11-25T12:30:14.267Z,3960.00
2022-11-25T12:31:14.332Z,3996.00
2022-11-25T12:32:14.255Z,4040.00
2022-11-25T12:33:14.257Z,4076.00
2022-11-25T12:34:14.227Z,4084.00
2022-11-25T12:35:14.241Z,4092.00
2022-11-25T12:36:14.218Z,4104.00
2022-11-25T12:37:15.344Z,4124.00
2022-11-25T12:38:14.181Z,4152.00
2022-11-25T12:39:14.250Z,4184.00
2022-11-25T12:40:14.165Z,4212.00
2022-11-25T12:41:14.164Z,4240.00
2022-11-25T12:42:14.187Z,4264.00
2022-11-25T12:43:14.129Z,4276.00